Time;durP1;ratioP1;P1;durP2;ratioP2;P2;SDS_P1;SDS_P2;PMS_P1;PMS_P2;Temp;Humidity;BMP_temperature;BMP_pressure;BME280_temperature;BME280_humidity;BME280_pressure;Samples;Min_cycle;Max_cycle;Signal;HPM_P1;HPM_P2
2023/08/07 00:00:22;;;;;;;0.03;0.03;;;;;;;17.61;53.18;101617.91;7349167;19;20029;-57
2023/08/07 00:02:48;;;;;;;0.00;0.00;;;;;;;17.57;53.16;101616.28;7352963;19;20030;-54
2023/08/07 00:05:13;;;;;;;0.00;0.00;;;;;;;17.57;53.36;101621.59;7351765;19;20676;-57
2023/08/07 00:07:39;;;;;;;0.00;0.00;;;;;;;17.54;52.91;101627.84;7351170;19;20010;-57
2023/08/07 00:10:05;;;;;;;0.00;0.00;;;;;;;17.52;52.77;101618.25;7349833;19;20021;-57
2023/08/07 00:12:30;;;;;;;0.00;0.00;;;;;;;17.49;53.10;101621.03;7349257;19;20114;-57
2023/08/07 00:14:56;;;;;;;0.00;0.00;;;;;;;17.45;53.44;101624.69;7354349;19;20011;-56
2023/08/07 00:17:21;;;;;;;0.00;0.00;;;;;;;17.40;54.05;101613.44;7352098;19;20021;-57
2023/08/07 00:19:46;;;;;;;0.00;0.00;;;;;;;17.28;54.02;101602.38;7350439;19;20015;-55
2023/08/07 00:22:12;;;;;;;0.00;0.00;;;;;;;17.35;54.05;101621.50;7351304;19;20011;-57
2023/08/07 00:24:37;;;;;;;0.03;0.03;;;;;;;17.30;54.59;101613.75;7352090;19;20014;-56
2023/08/07 00:27:03;;;;;;;0.00;0.00;;;;;;;17.26;54.05;101614.78;7348208;19;20013;-55
2023/08/07 00:29:28;;;;;;;0.00;0.00;;;;;;;17.24;54.52;101613.97;7351331;19;20010;-56
2023/08/07 00:31:54;;;;;;;0.00;0.00;;;;;;;17.20;54.15;101612.38;7352540;19;20712;-58
2023/08/07 00:34:19;;;;;;;0.10;0.10;;;;;;;17.17;54.03;101617.75;7350591;19;20030;-58
2023/08/07 00:36:45;;;;;;;0.00;0.00;;;;;;;17.14;54.29;101611.72;7354004;19;20011;-58
2023/08/07 00:39:10;;;;;;;0.00;0.00;;;;;;;17.11;54.50;101618.81;7353656;19;20033;-56
2023/08/07 00:41:36;;;;;;;0.00;0.00;;;;;;;17.09;54.25;101614.53;7348840;19;20040;-57
2023/08/07 00:44:01;;;;;;;0.00;0.00;;;;;;;17.05;54.91;101613.75;7353566;19;20070;-57
2023/08/07 00:46:29;;;;;;;0.00;0.00;;;;;;;17.02;54.67;101608.59;7351102;19;20010;-57
2023/08/07 00:48:55;;;;;;;0.00;0.00;;;;;;;16.98;54.55;101612.28;7353251;19;20928;-57
2023/08/07 00:51:22;;;;;;;0.00;0.00;;;;;;;16.97;55.15;101612.31;7351635;19;20014;-57
2023/08/07 00:53:48;;;;;;;0.10;0.10;;;;;;;16.95;55.15;101606.22;7353286;19;20006;-58
2023/08/07 00:56:14;;;;;;;0.00;0.00;;;;;;;16.92;55.67;101606.31;7351208;19;20403;-57
2023/08/07 00:58:40;;;;;;;0.00;0.00;;;;;;;16.92;55.09;101608.97;7353752;19;20010;-57
2023/08/07 01:01:06;;;;;;;0.00;0.00;;;;;;;16.82;55.48;101597.84;7347807;19;20018;-57
2023/08/07 01:03:31;;;;;;;0.00;0.00;;;;;;;16.86;55.52;101597.69;7351301;19;20129;-56
2023/08/07 01:05:56;;;;;;;0.00;0.00;;;;;;;16.88;54.90;101609.97;7345940;19;20011;-58
2023/08/07 01:08:24;;;;;;;0.00;0.00;;;;;;;16.84;55.41;101604.81;7353184;19;20155;-57
2023/08/07 01:11:08;;;;;;;0.10;0.10;;;;;;;16.82;55.75;101606.63;7350068;19;20010;-57
2023/08/07 01:13:58;;;;;;;0.05;0.05;;;;;;;16.82;54.54;101605.78;7352228;19;20014;-57
2023/08/07 01:16:34;;;;;;;0.10;0.10;;;;;;;16.78;54.90;101598.91;7346344;19;20006;-57
2023/08/07 01:19:01;;;;;;;0.00;0.00;;;;;;;16.74;55.46;101592.88;7349780;19;20458;-55
2023/08/07 01:21:26;;;;;;;0.08;0.08;;;;;;;16.70;55.54;101595.63;7349487;19;20554;-58
2023/08/07 01:23:52;;;;;;;0.00;0.00;;;;;;;16.66;54.95;101589.56;7348245;19;20089;-57
2023/08/07 01:26:20;;;;;;;0.10;0.10;;;;;;;16.63;55.17;101594.97;7349693;19;20081;-56
2023/08/07 01:29:14;;;;;;;0.05;0.05;;;;;;;16.58;54.02;101587.22;7351348;19;20003;-56
2023/08/07 01:31:41;;;;;;;0.00;0.00;;;;;;;16.52;54.82;101582.13;7246962;19;2004300;-57
2023/08/07 01:34:08;;;;;;;0.10;0.10;;;;;;;16.47;54.84;101586.69;7352437;19;20051;-57
2023/08/07 01:36:34;;;;;;;0.10;0.10;;;;;;;16.42;55.12;101585.13;7349620;19;20392;-55
2023/08/07 01:39:03;;;;;;;0.00;0.00;;;;;;;16.37;54.88;101581.78;7350815;19;20013;-56
2023/08/07 01:41:29;;;;;;;0.00;0.00;;;;;;;16.30;55.09;101576.69;7349897;19;20014;-57
2023/08/07 01:43:54;;;;;;;0.00;0.00;;;;;;;16.25;54.86;101588.31;7351993;19;20010;-56
2023/08/07 01:46:20;;;;;;;0.00;0.00;;;;;;;16.19;55.15;101578.84;7359362;19;20077;-58
2023/08/07 01:48:45;;;;;;;0.00;0.00;;;;;;;16.15;55.18;101582.47;7359303;19;20142;-57
2023/08/07 01:51:11;;;;;;;0.03;0.03;;;;;;;16.11;55.55;101574.72;7354198;19;20010;-58
2023/08/07 01:53:36;;;;;;;0.00;0.00;;;;;;;15.97;55.21;101567.25;7333340;19;20022;-57
2023/08/07 01:56:01;;;;;;;0.00;0.00;;;;;;;16.00;55.14;101575.03;7355916;19;20038;-57
2023/08/07 01:58:27;;;;;;;0.00;0.00;;;;;;;15.96;55.49;101583.94;7351281;19;20014;-57
2023/08/07 02:00:53;;;;;;;0.00;0.00;;;;;;;15.92;55.69;101577.06;7361620;19;20335;-57
2023/08/07 02:03:19;;;;;;;0.00;0.00;;;;;;;15.87;55.49;101581.63;7357973;19;20027;-57
2023/08/07 02:05:48;;;;;;;0.00;0.00;;;;;;;15.84;55.27;101577.28;7357190;19;20054;-53
2023/08/07 02:08:14;;;;;;;0.00;0.00;;;;;;;15.77;55.40;101579.25;7360728;19;20031;-57
2023/08/07 02:10:39;;;;;;;0.00;0.00;;;;;;;15.73;55.96;101572.34;7356040;19;20042;-57
2023/08/07 02:13:05;;;;;;;0.00;0.00;;;;;;;15.70;55.63;101569.81;7360588;19;20702;-56
2023/08/07 02:15:30;;;;;;;0.08;0.08;;;;;;;15.66;56.70;101562.03;7356347;19;20041;-58
2023/08/07 02:17:56;;;;;;;0.00;0.00;;;;;;;15.61;56.82;101559.50;7362004;19;20494;-57
2023/08/07 02:20:21;;;;;;;0.00;0.00;;;;;;;15.56;56.28;101557.03;7354782;19;20030;-56
2023/08/07 02:22:46;;;;;;;0.00;0.00;;;;;;;15.53;56.41;101551.00;7355060;19;20090;-56
2023/08/07 02:25:12;;;;;;;0.00;0.00;;;;;;;15.48;56.69;101553.75;7357794;19;20018;-56
2023/08/07 02:27:37;;;;;;;0.10;0.10;;;;;;;15.45;56.94;101559.09;7357316;19;20021;-57
2023/08/07 02:30:03;;;;;;;0.00;0.00;;;;;;;15.41;56.96;101556.59;7359743;19;20010;-55
2023/08/07 02:32:29;;;;;;;0.08;0.08;;;;;;;15.36;56.60;101553.25;7358512;19;20017;-57
2023/08/07 02:34:55;;;;;;;0.10;0.10;;;;;;;15.21;56.87;101537.00;7359227;19;20073;-57
2023/08/07 02:37:20;;;;;;;0.00;0.00;;;;;;;15.28;57.10;101556.97;7355485;19;20022;-57
2023/08/07 02:39:46;;;;;;;0.10;0.10;;;;;;;15.25;57.79;101557.03;7356718;19;20010;-57
2023/08/07 02:42:12;;;;;;;0.00;0.00;;;;;;;15.21;57.28;101550.16;7358167;19;20018;-56
2023/08/07 02:44:37;;;;;;;0.00;0.00;;;;;;;15.05;57.01;101512.03;7352547;19;20022;-56
2023/08/07 02:47:03;;;;;;;0.00;0.00;;;;;;;15.00;57.38;101503.41;7356753;19;20010;-58
2023/08/07 02:49:28;;;;;;;0.00;0.00;;;;;;;15.13;57.27;101536.34;7356761;19;20011;-55
2023/08/07 02:51:54;;;;;;;0.00;0.00;;;;;;;15.10;57.45;101535.56;7360885;19;20017;-57
2023/08/07 02:54:19;;;;;;;0.05;0.05;;;;;;;15.07;57.88;101530.41;7352894;19;20037;-55
2023/08/07 02:56:44;;;;;;;0.00;0.00;;;;;;;14.91;57.68;101511.56;7355983;19;20019;-57
2023/08/07 02:59:10;;;;;;;0.00;0.00;;;;;;;15.00;58.07;101534.97;7352893;19;20015;-57
2023/08/07 03:01:35;;;;;;;0.10;0.10;;;;;;;14.97;57.61;101537.69;7358076;19;20010;-57
2023/08/07 03:04:01;;;;;;;0.00;0.00;;;;;;;14.94;57.94;101535.13;7359375;19;20010;-57
2023/08/07 03:06:26;;;;;;;0.00;0.00;;;;;;;14.92;58.15;101531.69;7356196;19;20444;-57
2023/08/07 03:08:51;;;;;;;0.00;0.00;;;;;;;14.89;58.29;101543.16;7358589;19;20724;-57
2023/08/07 03:11:17;;;;;;;0.00;0.00;;;;;;;14.86;57.97;101542.38;7357862;19;20035;-53
2023/08/07 03:13:44;;;;;;;0.00;0.00;;;;;;;14.83;58.31;101542.47;7356255;19;19998;-56
2023/08/07 03:16:09;;;;;;;0.00;0.00;;;;;;;14.79;58.28;101547.78;7357128;19;20093;-57
2023/08/07 03:18:35;;;;;;;0.00;0.00;;;;;;;14.73;58.25;101542.69;7357755;19;20061;-54
2023/08/07 03:21:00;;;;;;;0.05;0.05;;;;;;;14.74;58.30;101549.69;7332419;19;20363;-55
2023/08/07 03:23:27;;;;;;;0.00;0.00;;;;;;;14.71;58.10;101539.25;7360546;19;20010;-57
2023/08/07 03:26:10;;;;;;;0.00;0.00;;;;;;;14.71;57.73;101538.41;7352588;19;20011;-57
2023/08/07 03:28:36;;;;;;;0.10;0.10;;;;;;;14.68;58.58;101541.97;7360236;19;20007;-57
2023/08/07 03:31:02;;;;;;;0.00;0.00;;;;;;;14.65;58.69;101536.78;7360251;19;20018;-57
2023/08/07 03:33:28;;;;;;;0.00;0.00;;;;;;;14.53;58.98;101518.69;7358881;19;20779;-57
2023/08/07 03:35:53;;;;;;;0.00;0.00;;;;;;;14.65;58.84;101544.69;7358502;19;20010;-57
2023/08/07 03:38:19;;;;;;;0.00;0.00;;;;;;;14.66;59.17;101532.41;7360266;19;20019;-56
2023/08/07 03:40:44;;;;;;;0.00;0.00;;;;;;;14.66;58.99;101535.88;7356754;19;20018;-57
2023/08/07 03:43:10;;;;;;;0.00;0.00;;;;;;;14.67;59.04;101527.09;7359953;19;20007;-57
2023/08/07 03:45:35;;;;;;;0.10;0.10;;;;;;;14.68;59.15;101523.56;7352912;19;20015;-55
2023/08/07 03:48:01;;;;;;;0.00;0.00;;;;;;;14.69;59.34;101522.66;7363323;19;20090;-56
2023/08/07 03:50:26;;;;;;;0.10;0.10;;;;;;;14.65;59.32;101507.88;7367347;19;20360;-56
2023/08/07 03:52:51;;;;;;;0.00;0.00;;;;;;;14.73;59.41;101511.16;7364924;19;20471;-56
2023/08/07 03:55:18;;;;;;;0.00;0.00;;;;;;;14.59;59.33;101497.50;7359231;19;20018;-57
2023/08/07 03:57:43;;;;;;;0.00;0.00;;;;;;;14.75;59.27;101512.00;7358764;19;20006;-58
2023/08/07 04:00:09;;;;;;;0.00;0.00;;;;;;;14.67;58.98;101500.81;7357741;19;20037;-57
2023/08/07 04:02:34;;;;;;;0.10;0.10;;;;;;;14.74;59.02;101502.34;7354506;19;20584;-58
2023/08/07 04:05:00;;;;;;;0.10;0.10;;;;;;;14.73;59.07;101503.25;7356487;19;20010;-57
2023/08/07 04:07:25;;;;;;;0.08;0.08;;;;;;;14.72;58.92;101513.81;7355691;19;20114;-55
2023/08/07 04:09:51;;;;;;;0.00;0.00;;;;;;;14.70;58.87;101499.84;7359383;19;21041;-57
2023/08/07 04:12:16;;;;;;;0.00;0.00;;;;;;;14.68;58.88;101507.78;7354960;19;20050;-55
2023/08/07 04:14:42;;;;;;;0.08;0.08;;;;;;;14.64;59.06;101500.00;7356845;19;20716;-56
2023/08/07 04:17:07;;;;;;;0.00;0.00;;;;;;;14.62;58.81;101502.69;7352941;19;21161;-56
2023/08/07 04:19:33;;;;;;;0.00;0.00;;;;;;;14.59;58.99;101501.91;7357986;19;20011;-57
2023/08/07 04:21:58;;;;;;;0.00;0.00;;;;;;;14.53;59.31;101502.94;7358656;19;20424;-57
2023/08/07 04:24:23;;;;;;;0.00;0.00;;;;;;;14.52;59.12;101506.47;7357823;19;20013;-57
2023/08/07 04:26:49;;;;;;;0.10;0.10;;;;;;;14.49;59.12;101507.41;7358341;19;20006;-56
2023/08/07 04:29:14;;;;;;;0.00;0.00;;;;;;;14.46;59.54;101514.47;7356284;19;20026;-57
2023/08/07 04:31:40;;;;;;;0.00;0.00;;;;;;;14.44;59.59;101518.91;7356602;19;20026;-57
2023/08/07 04:34:05;;;;;;;0.03;0.03;;;;;;;14.39;59.59;101513.75;7356146;19;20014;-56
2023/08/07 04:36:30;;;;;;;0.05;0.05;;;;;;;14.34;59.64;101513.00;7356098;19;20786;-55
2023/08/07 04:38:56;;;;;;;0.00;0.00;;;;;;;14.33;59.75;101531.44;7358190;19;20011;-57
2023/08/07 04:41:22;;;;;;;0.00;0.00;;;;;;;14.28;60.02;101519.28;7358665;19;20016;-58
2023/08/07 04:43:48;;;;;;;0.00;0.00;;;;;;;14.25;59.71;101529.88;7356601;19;21166;-57
2023/08/07 04:46:14;;;;;;;0.08;0.08;;;;;;;14.23;59.83;101522.94;7357673;19;20010;-57
2023/08/07 04:48:39;;;;;;;0.00;0.00;;;;;;;14.20;60.23;101526.50;7353660;19;20048;-54
2023/08/07 04:51:05;;;;;;;0.00;0.00;;;;;;;14.13;60.18;101513.56;7355839;19;20022;-57
2023/08/07 04:53:30;;;;;;;0.05;0.05;;;;;;;14.16;60.04;101524.84;7357563;19;20092;-57
2023/08/07 04:55:56;;;;;;;0.00;0.00;;;;;;;14.11;59.97;101505.72;7357505;19;20032;-57
2023/08/07 04:58:21;;;;;;;0.10;0.10;;;;;;;14.10;60.13;101504.00;7349054;19;20007;-56
2023/08/07 05:00:47;;;;;;;0.05;0.05;;;;;;;14.08;60.49;101505.78;7355440;19;20033;-57
2023/08/07 05:03:13;;;;;;;0.10;0.10;;;;;;;14.05;60.18;101499.75;7357046;19;20030;-57
2023/08/07 05:05:38;;;;;;;0.10;0.10;;;;;;;13.98;60.70;101493.78;7356302;19;20026;-56
2023/08/07 05:08:03;;;;;;;0.00;0.00;;;;;;;14.01;60.84;101507.69;7355610;19;20014;-58
2023/08/07 05:10:29;;;;;;;0.00;0.00;;;;;;;14.01;60.56;101498.97;7354462;19;20018;-57
2023/08/07 05:12:55;;;;;;;0.00;0.00;;;;;;;13.95;60.47;101493.88;7353552;19;20014;-55
2023/08/07 05:15:25;;;;;;;0.00;0.00;;;;;;;14.01;60.61;101509.47;7357009;19;20015;-57
2023/08/07 05:17:51;;;;;;;0.00;0.00;;;;;;;13.90;60.97;101499.22;7349543;19;20007;-56
2023/08/07 05:20:17;;;;;;;0.10;0.10;;;;;;;13.99;60.92;101508.66;7352679;19;20023;-55
2023/08/07 05:22:43;;;;;;;0.10;0.10;;;;;;;13.99;60.77;101506.03;7357311;19;20015;-57
2023/08/07 05:25:09;;;;;;;0.00;0.00;;;;;;;14.01;60.79;101509.47;7351316;19;20458;-57
2023/08/07 05:27:35;;;;;;;0.00;0.00;;;;;;;14.03;61.16;101505.03;7354530;19;20010;-57
2023/08/07 05:30:01;;;;;;;0.10;0.10;;;;;;;14.06;61.08;101499.72;7352342;19;20021;-57
2023/08/07 05:32:26;;;;;;;0.00;0.00;;;;;;;14.08;61.44;101504.91;7352608;19;20010;-57
2023/08/07 05:34:52;;;;;;;0.03;0.03;;;;;;;14.01;61.12;101486.69;7352822;19;20010;-57
2023/08/07 05:37:17;;;;;;;0.10;0.10;;;;;;;14.16;61.39;101503.84;7356272;19;20007;-57
2023/08/07 05:39:42;;;;;;;0.05;0.05;;;;;;;14.16;61.60;101487.22;7354959;19;20030;-55
2023/08/07 05:42:09;;;;;;;0.00;0.00;;;;;;;14.24;61.63;101501.00;7355393;19;20106;-58
2023/08/07 05:44:35;;;;;;;0.10;0.10;;;;;;;14.27;61.73;101501.81;7355360;19;20030;-57
2023/08/07 05:47:01;;;;;;;0.00;0.00;;;;;;;14.30;61.59;101502.66;7355527;19;20760;-57
2023/08/07 05:49:26;;;;;;;0.00;0.00;;;;;;;14.33;61.70;101506.03;7353814;19;20471;-55
2023/08/07 05:51:52;;;;;;;0.08;0.08;;;;;;;14.36;61.96;101499.84;7354149;19;20026;-57
2023/08/07 05:54:17;;;;;;;0.00;0.00;;;;;;;14.40;62.25;101506.75;7354932;19;20330;-58
2023/08/07 05:56:43;;;;;;;0.03;0.03;;;;;;;14.45;62.22;101510.13;7350539;19;20079;-57
2023/08/07 05:59:08;;;;;;;0.00;0.00;;;;;;;14.49;62.34;101515.28;7349843;19;20029;-58
2023/08/07 06:01:33;;;;;;;0.10;0.10;;;;;;;14.52;62.46;101502.06;7351154;19;20476;-57
2023/08/07 06:03:59;;;;;;;0.08;0.08;;;;;;;14.42;62.28;101476.03;7352857;19;20018;-57
2023/08/07 06:06:28;;;;;;;0.00;0.00;;;;;;;14.59;62.81;101497.50;7355286;19;20018;-58
2023/08/07 06:08:56;;;;;;;0.00;0.00;;;;;;;14.62;62.26;101492.19;7353283;19;20698;-58
2023/08/07 06:11:22;;;;;;;0.05;0.05;;;;;;;14.72;62.81;101493.66;7351805;19;20071;-56
2023/08/07 06:13:48;;;;;;;0.03;0.03;;;;;;;14.81;62.84;101507.47;7351387;19;20010;-57
2023/08/07 06:16:14;;;;;;;0.10;0.10;;;;;;;14.86;63.04;101505.56;7352473;19;20010;-56
2023/08/07 06:18:39;;;;;;;0.00;0.00;;;;;;;14.92;62.51;101500.13;7350347;19;20018;-57
2023/08/07 06:21:06;;;;;;;0.08;0.08;;;;;;;14.92;62.87;101494.88;7351914;19;20021;-56
2023/08/07 06:23:35;;;;;;;0.10;0.10;;;;;;;15.03;62.99;101495.44;7347775;19;20010;-57
2023/08/07 06:26:03;;;;;;;0.10;0.10;;;;;;;15.10;62.95;101496.97;7351539;19;20011;-55
2023/08/07 06:28:29;;;;;;;0.10;0.10;;;;;;;15.15;63.26;101497.69;7348449;19;20007;-56
2023/08/07 06:31:04;;;;;;;0.00;0.00;;;;;;;15.24;61.90;101491.31;7355927;19;20018;-55
2023/08/07 06:33:30;;;;;;;0.10;0.10;;;;;;;15.26;62.80;101490.38;7357733;19;20044;-57
2023/08/07 06:35:56;;;;;;;0.05;0.05;;;;;;;15.31;62.72;101482.34;7358480;19;21585;-58
2023/08/07 06:38:22;;;;;;;0.10;0.10;;;;;;;15.32;62.83;101490.19;7354718;19;20017;-56
2023/08/07 06:40:47;;;;;;;0.10;0.10;;;;;;;15.40;62.61;101491.72;7359951;19;20759;-57
2023/08/07 06:43:13;;;;;;;0.00;0.00;;;;;;;15.44;63.09;101488.94;7351809;19;20025;-58
2023/08/07 06:45:39;;;;;;;0.10;0.10;;;;;;;15.49;62.65;101486.19;7358640;19;20107;-58
2023/08/07 06:48:05;;;;;;;0.10;0.10;;;;;;;15.53;63.00;101491.31;7357117;19;20671;-56
2023/08/07 06:50:30;;;;;;;0.00;0.00;;;;;;;15.58;63.03;101486.75;7357866;19;20002;-56
2023/08/07 06:52:56;;;;;;;0.10;0.10;;;;;;;15.65;62.56;101491.88;7354014;19;20106;-58
2023/08/07 06:55:21;;;;;;;0.00;0.00;;;;;;;15.70;62.69;101484.69;7347257;19;20843;-57
2023/08/07 06:57:47;;;;;;;0.00;0.00;;;;;;;15.74;62.47;101481.91;7358917;19;20010;-57
2023/08/07 07:00:12;;;;;;;0.10;0.10;;;;;;;15.78;63.06;101483.53;7338916;19;20029;-57
2023/08/07 07:02:38;;;;;;;0.10;0.10;;;;;;;15.83;62.86;101489.53;7358549;19;20927;-56
2023/08/07 07:05:04;;;;;;;0.00;0.00;;;;;;;15.88;63.11;101485.88;7354643;19;20018;-57
2023/08/07 07:07:30;;;;;;;0.10;0.10;;;;;;;15.93;62.40;101491.88;7357402;19;20020;-57
2023/08/07 07:09:57;;;;;;;0.10;0.10;;;;;;;15.97;62.64;101489.09;7353619;19;20473;-56
2023/08/07 07:12:23;;;;;;;0.00;0.00;;;;;;;16.04;62.68;101489.75;7361312;19;20007;-57
2023/08/07 07:14:48;;;;;;;0.10;0.10;;;;;;;16.04;63.07;101489.75;7350844;19;20015;-55
2023/08/07 07:17:14;;;;;;;0.10;0.10;;;;;;;16.14;62.96;101495.56;7359416;19;20576;-57
2023/08/07 07:19:39;;;;;;;0.00;0.00;;;;;;;16.20;63.00;101487.44;7355631;19;20018;-58
2023/08/07 07:22:05;;;;;;;0.10;0.10;;;;;;;16.26;63.09;101484.59;7353866;19;20032;-57
2023/08/07 07:24:30;;;;;;;0.10;0.10;;;;;;;16.31;62.80;101487.94;7356912;19;20672;-55
2023/08/07 07:26:56;;;;;;;0.00;0.00;;;;;;;16.38;62.93;101488.63;7357639;19;20018;-55
2023/08/07 07:29:21;;;;;;;0.10;0.10;;;;;;;16.45;62.93;101487.47;7356708;19;20010;-58
2023/08/07 07:31:46;;;;;;;0.00;0.00;;;;;;;16.50;62.14;101486.41;7355563;19;20029;-56
2023/08/07 07:34:12;;;;;;;0.10;0.10;;;;;;;16.54;62.74;101495.06;7354761;19;20014;-55
2023/08/07 07:36:37;;;;;;;0.00;0.00;;;;;;;16.58;62.67;101492.28;7355719;19;20366;-55
2023/08/07 07:39:03;;;;;;;0.10;0.10;;;;;;;16.53;62.43;101477.53;7353290;19;20648;-57
2023/08/07 07:41:28;;;;;;;0.05;0.05;;;;;;;16.68;62.17;101498.09;7356328;19;20014;-57
2023/08/07 07:43:56;;;;;;;0.00;0.00;;;;;;;16.74;62.30;101499.69;7355789;19;20562;-57
2023/08/07 07:46:22;;;;;;;0.00;0.00;;;;;;;16.80;62.40;101507.38;7352227;19;20018;-57
2023/08/07 07:48:47;;;;;;;0.10;0.10;;;;;;;16.76;62.22;101485.50;7356652;19;20018;-57
2023/08/07 07:51:13;;;;;;;0.00;0.00;;;;;;;16.93;61.81;101498.13;7352438;19;20038;-57
2023/08/07 07:53:38;;;;;;;0.10;0.10;;;;;;;16.98;61.51;101495.28;7352947;19;20181;-57
2023/08/07 07:56:03;;;;;;;0.00;0.00;;;;;;;17.03;61.52;101495.97;7353932;19;20064;-57
2023/08/07 07:58:29;;;;;;;0.00;0.00;;;;;;;17.06;61.10;101493.22;7352244;19;20035;-58
2023/08/07 08:00:54;;;;;;;0.00;0.00;;;;;;;17.10;61.45;101500.13;7357853;19;20362;-56
2023/08/07 08:03:21;;;;;;;0.03;0.03;;;;;;;17.07;61.53;101489.66;7357070;19;20470;-57
2023/08/07 08:05:52;;;;;;;0.00;0.00;;;;;;;17.17;61.06;101485.78;7355768;19;20025;-57
2023/08/07 08:08:17;;;;;;;0.03;0.03;;;;;;;17.21;61.16;101490.03;7355908;19;20031;-57
2023/08/07 08:10:44;;;;;;;0.00;0.00;;;;;;;17.27;61.03;101489.78;7355567;19;20014;-57
2023/08/07 08:13:10;;;;;;;0.10;0.10;;;;;;;17.32;61.28;101486.97;7350652;19;20011;-57
2023/08/07 08:15:35;;;;;;;0.10;0.10;;;;;;;17.38;61.10;101489.38;7355975;19;20038;-57
2023/08/07 08:18:01;;;;;;;0.10;0.10;;;;;;;17.44;60.82;101486.53;7353344;19;20013;-57
2023/08/07 08:20:26;;;;;;;0.00;0.00;;;;;;;17.50;60.66;101482.78;7356758;19;21167;-58
2023/08/07 08:22:52;;;;;;;0.05;0.05;;;;;;;17.56;60.57;101488.66;7355464;19;20010;-58
2023/08/07 08:25:20;;;;;;;0.05;0.05;;;;;;;17.63;60.12;101481.34;7354298;19;20078;-58
2023/08/07 08:27:46;;;;;;;0.10;0.10;;;;;;;17.69;60.55;101481.13;7356088;19;20723;-57
2023/08/07 08:30:11;;;;;;;0.10;0.10;;;;;;;17.68;60.28;101458.25;7355683;19;20014;-56
2023/08/07 08:32:39;;;;;;;0.00;0.00;;;;;;;17.83;60.24;101465.59;7355504;19;20753;-58
2023/08/07 08:35:05;;;;;;;0.10;0.10;;;;;;;17.87;60.14;101461.91;7356532;19;20006;-57
2023/08/07 08:37:31;;;;;;;0.03;0.03;;;;;;;17.97;60.19;101456.25;7352491;19;20018;-58
2023/08/07 08:39:56;;;;;;;0.10;0.10;;;;;;;17.98;60.04;101452.69;7352176;19;20031;-57
2023/08/07 08:42:22;;;;;;;0.00;0.00;;;;;;;18.14;60.08;101466.97;7358451;19;20070;-56
2023/08/07 08:44:52;;;;;;;0.10;0.10;;;;;;;18.26;59.69;101466.47;7353576;19;20018;-55
2023/08/07 08:47:18;;;;;;;0.10;0.10;;;;;;;18.32;59.42;101463.56;7353856;19;20117;-55
2023/08/07 08:49:50;;;;;;;0.10;0.10;;;;;;;18.36;59.07;101444.00;7353018;19;20098;-57
2023/08/07 08:52:17;;;;;;;0.00;0.00;;;;;;;18.40;58.98;101440.31;7354239;19;20549;-56
2023/08/07 08:54:47;;;;;;;0.10;0.10;;;;;;;18.60;58.44;101457.94;7352992;19;20806;-56
2023/08/07 08:57:13;;;;;;;0.10;0.10;;;;;;;18.65;58.99;101455.06;7352623;19;21055;-57
2023/08/07 08:59:40;;;;;;;0.10;0.10;;;;;;;18.72;58.48;101447.78;7356445;19;20742;-58
2023/08/07 09:02:06;;;;;;;0.03;0.03;;;;;;;18.78;58.23;101445.69;7348746;19;20069;-57
2023/08/07 09:04:32;;;;;;;0.10;0.10;;;;;;;18.86;58.40;101440.06;7353996;19;20024;-57
2023/08/07 09:06:58;;;;;;;0.10;0.10;;;;;;;18.97;58.24;101455.47;7354491;19;20880;-57
2023/08/07 09:09:24;;;;;;;0.00;0.00;;;;;;;19.05;57.86;101442.72;7351263;19;20011;-57
2023/08/07 09:11:51;;;;;;;0.10;0.10;;;;;;;19.17;57.34;101431.56;7354116;19;20010;-58
2023/08/07 09:14:20;;;;;;;0.00;0.00;;;;;;;19.29;56.78;101432.78;7354834;19;20006;-57
2023/08/07 09:16:48;;;;;;;0.10;0.10;;;;;;;19.40;56.99;101427.81;7355415;19;20019;-57
2023/08/07 09:19:13;;;;;;;0.10;0.10;;;;;;;19.40;56.56;101427.81;7353375;19;20034;-57
2023/08/07 09:21:39;;;;;;;0.00;0.00;;;;;;;19.55;56.52;101442.97;7356792;19;20014;-56
2023/08/07 09:24:04;;;;;;;0.10;0.10;;;;;;;19.53;56.68;101423.66;7357599;19;20014;-58
2023/08/07 09:26:32;;;;;;;0.08;0.08;;;;;;;19.64;56.60;101428.47;7354125;19;20010;-57
2023/08/07 09:28:59;;;;;;;0.10;0.10;;;;;;;19.80;56.49;101442.69;7355898;19;20048;-57
2023/08/07 09:31:28;;;;;;;0.00;0.00;;;;;;;19.85;56.03;101445.97;7355690;19;20403;-57
2023/08/07 09:33:54;;;;;;;0.10;0.10;;;;;;;19.98;55.26;101446.22;7354526;19;20481;-57
2023/08/07 09:36:19;;;;;;;0.10;0.10;;;;;;;19.96;55.19;101435.66;7352978;19;20006;-57
2023/08/07 09:38:49;;;;;;;0.10;0.10;;;;;;;20.17;54.98;101446.13;7355749;19;20404;-58
2023/08/07 09:41:19;;;;;;;0.10;0.10;;;;;;;20.22;55.08;101446.75;7345066;19;21665;-58
2023/08/07 09:43:44;;;;;;;0.00;0.00;;;;;;;20.24;54.62;101447.53;7353878;19;20022;-56
2023/08/07 09:46:09;;;;;;;0.00;0.00;;;;;;;20.28;54.53;101441.16;7344483;19;20597;-57
2023/08/07 09:48:44;;;;;;;0.10;0.10;;;;;;;20.41;54.91;101438.72;7355256;19;20010;-58
2023/08/07 09:51:10;;;;;;;0.00;0.00;;;;;;;20.44;54.26;101439.41;7353808;19;20020;-58
2023/08/07 09:53:36;;;;;;;0.10;0.10;;;;;;;20.51;54.22;101439.13;7353152;19;20112;-57
2023/08/07 09:56:02;;;;;;;0.10;0.10;;;;;;;20.59;53.49;101450.22;7354425;19;20773;-58
2023/08/07 09:58:28;;;;;;;0.10;0.10;;;;;;;20.67;53.30;101440.03;7349865;19;20015;-57
2023/08/07 10:00:55;;;;;;;0.10;0.10;;;;;;;20.71;53.68;101438.94;7354120;19;20355;-58
2023/08/07 10:03:22;;;;;;;0.10;0.10;;;;;;;20.81;53.44;101437.50;7327645;19;21103;-56
2023/08/07 10:05:48;;;;;;;0.00;0.00;;;;;;;20.84;53.06;101428.53;7352563;19;20071;-57
2023/08/07 10:08:15;;;;;;;0.00;0.00;;;;;;;20.94;52.97;101427.94;7356420;19;20041;-57
2023/08/07 10:10:40;;;;;;;0.00;0.00;;;;;;;21.03;53.04;101431.00;7360229;19;20021;-56
2023/08/07 10:13:06;;;;;;;0.00;0.00;;;;;;;21.09;53.08;101430.69;7360614;19;20014;-57
2023/08/07 10:15:34;;;;;;;0.10;0.10;;;;;;;21.15;52.94;101425.03;7358601;19;20014;-56
2023/08/07 10:17:59;;;;;;;0.10;0.10;;;;;;;21.24;53.00;101424.53;7358360;19;20093;-56
2023/08/07 10:20:28;;;;;;;0.00;0.00;;;;;;;21.34;52.61;101428.44;7358574;19;20543;-57
2023/08/07 10:23:00;;;;;;;0.03;0.03;;;;;;;21.45;52.18;101434.00;7358608;19;20031;-57
2023/08/07 10:25:28;;;;;;;0.10;0.10;;;;;;;21.42;52.64;101407.56;7361540;19;20011;-58
2023/08/07 10:27:57;;;;;;;0.10;0.10;;;;;;;21.63;52.48;101425.91;7356513;19;20976;-57
2023/08/07 10:30:25;;;;;;;0.08;0.08;;;;;;;21.69;51.94;101428.19;7361415;19;20793;-56
2023/08/07 10:32:51;;;;;;;0.10;0.10;;;;;;;21.73;51.12;101427.94;7358459;19;20011;-57
2023/08/07 10:35:33;;;;;;;0.10;0.10;;;;;;;21.84;52.13;101429.13;7360885;19;20022;-56
2023/08/07 10:38:07;;;;;;;0.10;0.10;;;;;;;21.86;52.01;101428.09;7360098;19;20014;-57
2023/08/07 10:40:32;;;;;;;0.10;0.10;;;;;;;21.86;51.11;101417.47;7353006;19;20507;-57
2023/08/07 10:42:59;;;;;;;0.10;0.10;;;;;;;21.92;51.32;101416.22;7357111;19;20014;-58
2023/08/07 10:45:26;;;;;;;0.10;0.10;;;;;;;21.98;51.82;101411.41;7356520;19;20885;-56
2023/08/07 10:48:01;;;;;;;0.10;0.10;;;;;;;22.13;52.05;101411.47;7359862;19;20639;-57
2023/08/07 10:50:49;;;;;;;0.10;0.10;;;;;;;22.20;50.67;101404.81;7357467;19;20077;-57
2023/08/07 10:53:32;;;;;;;0.10;0.10;;;;;;;22.40;51.04;101407.13;7356209;19;20712;-58
2023/08/07 10:56:01;;;;;;;0.08;0.08;;;;;;;22.33;50.24;101384.53;7357067;19;20006;-56
2023/08/07 10:58:31;;;;;;;0.10;0.10;;;;;;;22.54;49.52;101409.81;7358447;19;20467;-56
2023/08/07 11:01:27;;;;;;;0.10;0.10;;;;;;;22.68;50.96;101411.63;7352390;19;20015;-57
2023/08/07 11:03:55;;;;;;;0.10;0.10;;;;;;;22.71;49.67;101407.94;7255009;19;2004420;-57
2023/08/07 11:06:31;;;;;;;0.00;0.00;;;;;;;22.83;49.59;101404.50;7356028;19;20024;-57
2023/08/07 11:08:57;;;;;;;0.10;0.10;;;;;;;22.78;48.03;101406.59;7357456;19;20014;-58
2023/08/07 11:11:23;;;;;;;0.10;0.10;;;;;;;22.78;48.51;101401.25;7350581;19;21142;-57
2023/08/07 11:13:49;;;;;;;0.00;0.00;;;;;;;22.77;47.88;101404.88;7356325;19;20014;-57
2023/08/07 11:16:15;;;;;;;0.10;0.10;;;;;;;22.72;48.29;101401.66;7354719;19;20020;-55
2023/08/07 11:18:42;;;;;;;0.05;0.05;;;;;;;22.65;48.87;101409.16;7354671;19;20018;-56
2023/08/07 11:21:10;;;;;;;0.10;0.10;;;;;;;22.60;49.07;101407.72;7358533;19;20699;-58